Time;durP1;ratioP1;P1;durP2;ratioP2;P2;SDS_P1;SDS_P2;PMS_P1;PMS_P2;Temp;Humidity;BMP_temperature;BMP_pressure;BME280_temperature;BME280_humidity;BME280_pressure;Samples;Min_cycle;Max_cycle;Signal;HPM_P1;HPM_P2
2023/07/27 00:00:53;;;;;;;2.57;1.70;;;;;;;12.98;73.80;97685.25;6228727;28;20668;-39
2023/07/27 00:03:56;;;;;;;2.33;1.50;;;;;;;12.84;74.67;97684.88;6228087;28;20575;-41
2023/07/27 00:06:58;;;;;;;1.87;1.40;;;;;;;12.81;74.18;97688.09;6229169;28;20313;-40
2023/07/27 00:10:01;;;;;;;1.60;1.50;;;;;;;12.77;74.86;97678.16;6226936;28;20270;-41
2023/07/27 00:13:03;;;;;;;1.80;1.40;;;;;;;12.90;74.26;97685.72;6227634;28;20235;-42
2023/07/27 00:16:06;;;;;;;1.40;1.30;;;;;;;12.84;75.03;97681.41;6228476;28;20235;-39
2023/07/27 00:19:08;;;;;;;2.87;1.43;;;;;;;12.76;76.10;97693.41;6229573;28;20334;-40
2023/07/27 00:22:11;;;;;;;1.53;1.33;;;;;;;12.72;76.99;97675.44;6225266;28;20236;-40
2023/07/27 00:25:13;;;;;;;1.30;1.20;;;;;;;12.59;76.59;97677.47;6207603;28;20618;-40
2023/07/27 00:28:16;;;;;;;1.90;1.27;;;;;;;12.72;76.60;97686.13;6229063;28;20230;-41
2023/07/27 00:31:18;;;;;;;1.33;1.23;;;;;;;12.66;77.52;97682.63;6225187;28;20242;-40
2023/07/27 00:34:21;;;;;;;1.80;1.10;;;;;;;12.60;78.54;97678.28;6229656;28;20574;-41
2023/07/27 00:37:23;;;;;;;1.27;1.17;;;;;;;12.42;78.38;97657.28;6225849;28;20577;-41
2023/07/27 00:40:26;;;;;;;2.03;1.17;;;;;;;12.51;78.35;97685.97;6227585;28;20242;-41
2023/07/27 00:43:28;;;;;;;1.43;1.20;;;;;;;12.34;79.37;97674.56;6218035;28;20614;-41
2023/07/27 00:46:32;;;;;;;1.87;1.30;;;;;;;12.24;80.23;97664.59;6212381;28;20266;-39
2023/07/27 00:49:35;;;;;;;2.40;1.50;;;;;;;12.30;80.34;97676.94;6211226;28;20227;-43
2023/07/27 00:52:40;;;;;;;1.37;1.17;;;;;;;12.24;80.55;97667.28;6232979;28;20271;-40
2023/07/27 00:55:44;;;;;;;1.70;1.50;;;;;;;12.20;80.43;97666.16;6223692;28;20803;-42
2023/07/27 00:58:47;;;;;;;3.73;1.60;;;;;;;12.24;81.36;97666.47;6206640;28;20279;-42
2023/07/27 01:01:50;;;;;;;1.17;0.97;;;;;;;12.20;81.16;97662.69;6226687;28;20243;-40
2023/07/27 01:04:53;;;;;;;1.70;1.40;;;;;;;12.23;82.04;97672.88;6233305;28;20231;-40
2023/07/27 01:07:55;;;;;;;1.87;1.50;;;;;;;12.28;79.28;97672.94;6218040;28;20932;-40
2023/07/27 01:11:08;;;;;;;1.90;1.40;;;;;;;12.20;80.93;97650.13;6214741;28;20238;-40
2023/07/27 01:14:28;;;;;;;2.37;1.47;;;;;;;12.40;79.66;97670.88;6232599;28;20375;-39
2023/07/27 01:17:43;;;;;;;2.13;1.43;;;;;;;12.36;79.93;97672.44;6214407;28;20594;-42
2023/07/27 01:21:10;;;;;;;1.67;1.50;;;;;;;12.42;78.55;97670.66;6229550;28;20231;-41
2023/07/27 01:24:30;;;;;;;3.50;1.40;;;;;;;12.45;79.91;97680.81;6205586;28;20223;-40
2023/07/27 01:27:48;;;;;;;2.93;1.63;;;;;;;12.61;76.73;97667.34;6217235;28;20236;-40
2023/07/27 01:31:06;;;;;;;2.57;1.50;;;;;;;12.56;76.66;97659.28;6231378;28;20232;-40
2023/07/27 01:34:23;;;;;;;1.50;1.20;;;;;;;12.57;76.70;97674.25;6229231;28;20239;-40
2023/07/27 01:37:28;;;;;;;1.60;1.30;;;;;;;12.56;76.84;97663.81;6226127;28;20239;-40
2023/07/27 01:40:33;;;;;;;2.83;1.50;;;;;;;12.54;77.27;97671.28;6214472;28;20232;-41
2023/07/27 01:43:38;;;;;;;1.60;1.50;;;;;;;12.53;78.41;97661.66;6211558;28;20258;-42
2023/07/27 01:46:43;;;;;;;2.40;1.27;;;;;;;12.48;80.59;97656.28;6232225;28;20271;-40
2023/07/27 01:49:46;;;;;;;1.60;1.50;;;;;;;12.49;78.33;97660.53;6231134;28;20582;-40
2023/07/27 01:52:52;;;;;;;1.83;1.20;;;;;;;12.60;77.22;97662.25;6229322;28;20235;-40
2023/07/27 01:55:55;;;;;;;1.57;1.23;;;;;;;12.49;78.39;97653.34;6232150;28;20322;-41
2023/07/27 01:58:59;;;;;;;1.33;1.23;;;;;;;12.39;78.90;97646.03;6213941;28;20220;-40
2023/07/27 02:02:02;;;;;;;2.43;1.80;;;;;;;12.53;77.08;97659.00;6213100;28;20604;-40
2023/07/27 02:05:06;;;;;;;3.23;1.30;;;;;;;12.54;78.24;97658.72;6221629;28;20231;-40
2023/07/27 02:08:09;;;;;;;1.10;1.00;;;;;;;12.45;78.54;97662.13;6229814;28;20231;-40
2023/07/27 02:11:16;;;;;;;2.47;1.50;;;;;;;12.34;78.83;97645.19;6231637;28;20231;-40
2023/07/27 02:14:32;;;;;;;2.47;1.40;;;;;;;12.31;79.19;97649.16;6230309;28;20239;-45
2023/07/27 02:17:46;;;;;;;3.10;1.77;;;;;;;12.33;77.55;97652.41;6230599;28;20232;-42
2023/07/27 02:20:50;;;;;;;1.93;1.63;;;;;;;12.58;75.57;97661.69;6226991;28;20240;-40
2023/07/27 02:23:54;;;;;;;1.50;1.20;;;;;;;12.54;78.03;97656.06;6230969;28;20370;-40
2023/07/27 02:26:56;;;;;;;1.40;1.30;;;;;;;12.51;77.52;97669.09;6225781;28;20733;-55
2023/07/27 02:30:00;;;;;;;2.10;1.63;;;;;;;12.47;79.47;97663.47;6212640;28;20224;-41
2023/07/27 02:33:04;;;;;;;2.10;1.67;;;;;;;12.46;77.65;97672.53;6212414;28;20222;-41
2023/07/27 02:36:09;;;;;;;1.47;1.37;;;;;;;12.49;77.25;97666.69;6224696;28;20211;-47
2023/07/27 02:39:14;;;;;;;2.50;1.90;;;;;;;12.50;77.07;97673.66;6222942;28;21062;-41
2023/07/27 02:42:17;;;;;;;2.37;1.50;;;;;;;12.52;76.19;97682.22;6218739;28;20568;-40
2023/07/27 02:45:20;;;;;;;1.70;1.40;;;;;;;12.54;75.96;97684.63;6222431;28;20301;-47
2023/07/27 02:48:26;;;;;;;1.77;1.57;;;;;;;12.49;76.42;97685.41;6214337;28;20220;-42
2023/07/27 02:51:30;;;;;;;2.20;1.47;;;;;;;12.47;77.01;97697.41;6212546;28;20223;-40
2023/07/27 02:54:33;;;;;;;2.07;1.63;;;;;;;12.50;76.14;97686.19;6204645;28;20219;-39
2023/07/27 02:57:36;;;;;;;1.83;1.40;;;;;;;12.49;76.48;97682.72;6227996;28;20723;-42
2023/07/27 03:00:38;;;;;;;2.37;1.50;;;;;;;12.50;76.57;97681.66;6228375;28;20693;-42
2023/07/27 03:03:42;;;;;;;2.00;1.70;;;;;;;12.53;75.55;97688.38;6229173;28;20954;-40
2023/07/27 03:06:46;;;;;;;2.37;1.90;;;;;;;12.55;75.71;97688.91;6212107;28;20292;-40
2023/07/27 03:09:51;;;;;;;2.07;1.60;;;;;;;12.52;75.30;97690.25;6208297;28;20259;-40
2023/07/27 03:12:54;;;;;;;2.57;1.40;;;;;;;12.51;75.25;97707.34;6229042;28;20231;-40
2023/07/27 03:15:57;;;;;;;3.27;1.80;;;;;;;12.53;76.49;97699.06;6229555;28;20374;-40
2023/07/27 03:18:59;;;;;;;2.70;1.60;;;;;;;12.60;74.19;97700.44;6227385;28;20239;-40
2023/07/27 03:22:01;;;;;;;1.77;1.50;;;;;;;12.53;75.22;97702.53;6227324;28;20246;-40
2023/07/27 03:25:04;;;;;;;1.30;1.20;;;;;;;12.50;75.14;97708.38;6228737;28;20317;-40
2023/07/27 03:28:08;;;;;;;2.90;1.57;;;;;;;12.42;74.51;97690.16;6226014;28;20720;-40
2023/07/27 03:31:24;;;;;;;1.70;1.23;;;;;;;12.46;74.97;97699.25;6228545;28;20245;-40
2023/07/27 03:34:27;;;;;;;2.40;1.73;;;;;;;12.45;74.13;97697.66;6227225;28;20243;-40
2023/07/27 03:37:29;;;;;;;2.07;1.77;;;;;;;12.62;73.14;97718.94;6223642;28;20227;-42
2023/07/27 03:40:32;;;;;;;1.93;1.57;;;;;;;12.49;73.68;97706.78;6227915;28;20246;-39
2023/07/27 03:43:34;;;;;;;1.83;1.50;;;;;;;12.57;74.12;97726.91;6202950;28;20239;-39
2023/07/27 03:46:37;;;;;;;1.77;1.60;;;;;;;12.55;75.26;97735.16;6209753;28;20228;-40
2023/07/27 03:49:39;;;;;;;2.10;1.90;;;;;;;12.65;73.96;97737.13;6209763;28;20243;-40
2023/07/27 03:52:42;;;;;;;2.13;1.53;;;;;;;12.72;73.03;97732.38;6228084;28;20234;-40
2023/07/27 03:55:47;;;;;;;2.70;1.77;;;;;;;12.68;74.24;97738.50;6210122;28;20232;-41
2023/07/27 03:58:49;;;;;;;2.87;1.70;;;;;;;12.64;75.33;97746.19;6218723;28;20235;-42
2023/07/27 04:01:53;;;;;;;4.27;1.77;;;;;;;12.90;72.42;97739.19;6228041;28;20234;-41
2023/07/27 04:04:55;;;;;;;2.43;1.70;;;;;;;12.87;72.29;97745.88;6226449;28;20227;-41
2023/07/27 04:07:57;;;;;;;1.87;1.53;;;;;;;12.78;73.09;97743.91;6228781;28;20228;-39
2023/07/27 04:11:00;;;;;;;1.50;1.40;;;;;;;12.73;73.47;97738.53;6227762;28;20231;-41
2023/07/27 04:14:02;;;;;;;2.43;1.50;;;;;;;12.71;74.13;97744.13;6210736;28;20246;-39
2023/07/27 04:17:05;;;;;;;2.40;1.77;;;;;;;12.65;74.49;97731.75;6227208;28;20687;-39
2023/07/27 04:20:08;;;;;;;1.87;1.53;;;;;;;12.73;74.67;97738.53;6228223;28;20228;-40
2023/07/27 04:23:10;;;;;;;1.70;1.60;;;;;;;12.80;74.17;97737.25;6227495;28;20235;-40
2023/07/27 04:26:13;;;;;;;3.77;1.93;;;;;;;13.03;71.92;97740.66;6226640;28;20300;-40
2023/07/27 04:29:15;;;;;;;2.03;1.70;;;;;;;13.08;72.58;97748.72;6225984;28;20695;-39
2023/07/27 04:32:17;;;;;;;2.13;1.80;;;;;;;13.06;74.08;97742.81;6227539;28;20234;-41
2023/07/27 04:35:20;;;;;;;1.90;1.70;;;;;;;13.06;72.93;97740.94;6227059;28;20227;-41
2023/07/27 04:38:22;;;;;;;1.53;1.40;;;;;;;13.07;73.72;97742.56;6207537;28;20228;-40
2023/07/27 04:41:25;;;;;;;1.63;1.50;;;;;;;12.93;74.35;97722.66;6227636;28;20236;-40
2023/07/27 04:44:27;;;;;;;1.70;1.50;;;;;;;13.02;74.49;97733.69;6226471;28;20295;-40
2023/07/27 04:47:29;;;;;;;2.10;1.67;;;;;;;13.10;73.73;97747.41;6210258;28;20235;-40
2023/07/27 04:50:32;;;;;;;2.50;1.37;;;;;;;13.04;74.31;97745.72;6227230;28;20257;-40
2023/07/27 04:53:34;;;;;;;2.53;1.60;;;;;;;13.09;73.00;97737.75;6227546;28;20238;-40
2023/07/27 04:56:36;;;;;;;1.60;1.40;;;;;;;13.28;74.11;97759.59;6227693;28;20234;-56
2023/07/27 04:59:39;;;;;;;1.40;1.30;;;;;;;13.34;73.54;97758.56;6234425;28;20235;-56
2023/07/27 05:02:41;;;;;;;1.83;1.50;;;;;;;13.55;70.73;97753.34;6227161;28;20662;-55
2023/07/27 05:05:43;;;;;;;1.90;1.50;;;;;;;13.65;71.28;97764.13;6226632;28;20238;-55
2023/07/27 05:08:47;;;;;;;1.67;1.33;;;;;;;13.65;71.84;97750.72;6229154;28;20235;-55
2023/07/27 05:11:49;;;;;;;1.73;1.40;;;;;;;13.64;72.03;97763.31;6226155;28;20244;-56
2023/07/27 05:14:55;;;;;;;1.83;1.60;;;;;;;13.63;73.52;97769.72;6225406;28;20842;-56
2023/07/27 05:17:57;;;;;;;1.80;1.47;;;;;;;13.59;74.18;97768.59;6209040;28;20354;-55
2023/07/27 05:20:59;;;;;;;1.60;1.50;;;;;;;13.63;72.66;97763.56;6227325;28;20374;-56
2023/07/27 05:24:02;;;;;;;2.40;1.40;;;;;;;13.70;71.95;97763.34;6227067;28;20243;-55
2023/07/27 05:27:05;;;;;;;1.83;1.67;;;;;;;13.81;69.62;97762.31;6226819;28;20234;-56
2023/07/27 05:30:07;;;;;;;1.47;1.00;;;;;;;13.84;71.40;97773.31;6226719;28;20610;-54
2023/07/27 05:33:10;;;;;;;1.50;1.40;;;;;;;13.71;70.87;97762.28;6209412;28;20212;-56
2023/07/27 05:36:12;;;;;;;1.83;1.40;;;;;;;13.86;70.99;97773.84;6227515;28;20430;-56
2023/07/27 05:39:14;;;;;;;2.13;1.70;;;;;;;13.96;69.71;97769.63;6229105;28;20220;-55
2023/07/27 05:42:17;;;;;;;2.43;1.67;;;;;;;13.77;70.79;97745.16;6229482;28;20231;-55
2023/07/27 05:45:19;;;;;;;1.97;1.23;;;;;;;13.91;70.52;97771.19;6231102;28;20224;-55
2023/07/27 05:48:21;;;;;;;4.20;1.40;;;;;;;14.03;69.25;97776.34;6226532;28;20335;-55
2023/07/27 05:51:23;;;;;;;2.00;1.40;;;;;;;14.09;69.42;97769.94;6234295;28;20362;-54
2023/07/27 05:54:26;;;;;;;1.93;1.40;;;;;;;14.12;69.53;97772.09;6233257;28;20638;-55
2023/07/27 05:57:28;;;;;;;2.53;1.33;;;;;;;14.18;69.57;97771.03;6230047;28;20602;-55
2023/07/27 06:00:30;;;;;;;2.03;1.20;;;;;;;14.17;70.11;97774.78;6230105;28;20239;-56
2023/07/27 06:03:34;;;;;;;2.37;1.63;;;;;;;14.22;69.57;97773.19;6229509;28;20636;-56
2023/07/27 06:06:47;;;;;;;2.10;1.10;;;;;;;14.26;70.51;97774.28;6230122;28;20224;-56
2023/07/27 06:09:49;;;;;;;1.40;1.30;;;;;;;14.26;71.21;97769.72;6226723;28;20800;-56
2023/07/27 06:12:52;;;;;;;3.60;1.57;;;;;;;14.27;71.37;97775.91;6227240;28;20258;-56
2023/07/27 06:15:54;;;;;;;1.67;1.57;;;;;;;14.31;69.65;97755.53;6229223;28;20624;-56
2023/07/27 06:18:57;;;;;;;1.93;1.47;;;;;;;14.43;70.08;97764.13;6229098;28;20814;-56
2023/07/27 06:21:59;;;;;;;1.77;1.57;;;;;;;14.61;66.42;97770.91;6230162;28;20232;-56
2023/07/27 06:25:02;;;;;;;2.07;1.47;;;;;;;14.85;64.80;97764.00;6230687;28;20238;-56
2023/07/27 06:28:05;;;;;;;1.43;1.33;;;;;;;14.83;67.30;97760.78;6230064;28;20235;-56
2023/07/27 06:31:07;;;;;;;2.03;1.43;;;;;;;14.79;66.19;97751.66;6231518;28;20739;-53
2023/07/27 06:34:10;;;;;;;3.10;1.53;;;;;;;14.81;67.61;97751.38;6229251;28;20242;-56
2023/07/27 06:37:12;;;;;;;1.90;1.60;;;;;;;15.11;64.80;97759.44;6207573;28;20231;-56
2023/07/27 06:40:15;;;;;;;1.57;1.47;;;;;;;15.26;64.56;97757.81;6230863;28;20231;-56
2023/07/27 06:43:17;;;;;;;2.57;2.13;;;;;;;15.43;61.82;97753.78;6225233;28;20251;-56
2023/07/27 06:46:20;;;;;;;2.07;1.47;;;;;;;15.37;64.42;97754.03;6228832;28;20232;-56
2023/07/27 06:49:23;;;;;;;1.80;1.40;;;;;;;15.49;63.58;97757.25;6227983;28;20255;-56
2023/07/27 06:52:25;;;;;;;2.73;1.60;;;;;;;15.77;62.02;97753.19;6225844;28;20238;-57
2023/07/27 06:55:29;;;;;;;2.60;1.50;;;;;;;15.72;62.97;97758.59;6229802;28;20652;-55
2023/07/27 06:58:31;;;;;;;1.97;1.50;;;;;;;15.85;63.18;97751.81;6228914;28;20229;-57
2023/07/27 07:01:34;;;;;;;2.90;1.40;;;;;;;15.92;61.41;97758.50;6229074;28;20243;-57
2023/07/27 07:04:36;;;;;;;2.10;1.57;;;;;;;15.95;61.54;97731.06;6211589;28;20267;-57
2023/07/27 07:07:40;;;;;;;3.37;1.60;;;;;;;16.08;60.88;97740.44;6229630;28;20736;-58
2023/07/27 07:10:43;;;;;;;2.70;1.80;;;;;;;15.70;60.61;97696.25;6228329;28;20285;-59
2023/07/27 07:13:46;;;;;;;2.07;1.47;;;;;;;16.16;60.14;97739.06;6227248;28;20242;-56
2023/07/27 07:16:48;;;;;;;3.40;1.77;;;;;;;16.35;60.12;97742.72;6228709;28;21117;-56
2023/07/27 07:19:51;;;;;;;2.00;1.70;;;;;;;16.58;58.66;97733.19;6211067;28;20231;-56
2023/07/27 07:22:54;;;;;;;2.70;1.40;;;;;;;16.68;59.63;97738.47;6210414;28;20613;-58
2023/07/27 07:25:57;;;;;;;1.90;1.60;;;;;;;16.57;60.85;97726.19;6229524;28;20236;-55
2023/07/27 07:29:04;;;;;;;4.03;1.80;;;;;;;16.73;58.42;97730.41;6229221;28;20362;-55
2023/07/27 07:32:12;;;;;;;1.90;1.67;;;;;;;16.86;58.52;97728.97;6209915;28;20605;-55
2023/07/27 07:35:18;;;;;;;2.83;1.63;;;;;;;16.95;54.91;97729.19;6225302;28;20630;-55
2023/07/27 07:38:20;;;;;;;2.47;1.80;;;;;;;17.01;53.93;97725.38;6224945;28;20285;-55
2023/07/27 07:41:23;;;;;;;1.77;1.50;;;;;;;16.92;55.93;97727.06;6210122;28;20236;-56
2023/07/27 07:44:26;;;;;;;2.07;1.90;;;;;;;16.97;55.73;97725.13;6227791;28;20235;-52
2023/07/27 07:47:30;;;;;;;2.00;1.70;;;;;;;17.04;55.62;97735.53;6227760;28;20223;-59
2023/07/27 07:50:42;;;;;;;1.97;1.50;;;;;;;17.15;54.69;97717.44;6228812;28;20246;-56
2023/07/27 07:53:44;;;;;;;2.10;1.70;;;;;;;17.22;58.48;97716.00;6227785;28;20239;-58
2023/07/27 07:56:47;;;;;;;1.97;1.70;;;;;;;17.24;57.35;97708.47;6227700;28;20303;-58
2023/07/27 07:59:50;;;;;;;2.37;1.43;;;;;;;17.46;54.31;97716.03;6226389;28;20227;-60
2023/07/27 08:02:53;;;;;;;1.77;1.63;;;;;;;17.57;52.45;97715.94;6228718;28;20243;-59
2023/07/27 08:05:57;;;;;;;2.90;1.90;;;;;;;17.50;53.90;97711.69;6227361;28;20581;-58
2023/07/27 08:09:00;;;;;;;2.67;1.80;;;;;;;17.60;52.98;97712.69;6228196;28;20681;-58
2023/07/27 08:12:06;;;;;;;2.33;1.80;;;;;;;17.67;53.47;97713.13;6226176;28;20235;-57
2023/07/27 08:15:09;;;;;;;3.50;2.17;;;;;;;17.67;54.59;97708.53;6203821;28;20219;-58
2023/07/27 08:18:11;;;;;;;2.50;1.60;;;;;;;17.79;53.67;97706.28;6227740;28;20222;-59
2023/07/27 08:21:13;;;;;;;2.27;1.60;;;;;;;17.85;53.59;97693.56;6228160;28;20216;-59
2023/07/27 08:24:15;;;;;;;2.60;1.70;;;;;;;17.79;54.25;97673.16;6226671;28;20246;-58
2023/07/27 08:27:18;;;;;;;2.10;1.60;;;;;;;17.95;54.49;97692.63;6226709;28;20398;-60
2023/07/27 08:30:20;;;;;;;2.17;1.73;;;;;;;18.07;55.57;97684.91;6227219;28;20244;-58
2023/07/27 08:33:22;;;;;;;3.10;1.53;;;;;;;18.26;49.94;97677.63;6227628;28;20662;-58
2023/07/27 08:36:25;;;;;;;2.37;1.60;;;;;;;18.31;49.09;97669.47;6227613;28;20301;-58
2023/07/27 08:39:27;;;;;;;2.37;1.57;;;;;;;18.29;52.54;97682.44;6225717;28;20232;-58
2023/07/27 08:42:31;;;;;;;2.20;1.63;;;;;;;18.42;49.85;97683.63;6227201;28;20330;-57
2023/07/27 08:45:34;;;;;;;3.70;1.50;;;;;;;18.46;49.04;97681.94;6235563;28;20254;-58
2023/07/27 08:48:38;;;;;;;2.93;1.83;;;;;;;18.50;49.59;97674.84;6221153;28;20231;-58
2023/07/27 08:51:44;;;;;;;2.30;1.90;;;;;;;18.52;48.85;97674.56;6227485;28;20235;-57
2023/07/27 08:54:46;;;;;;;1.80;1.50;;;;;;;18.46;52.77;97673.03;6227712;28;20446;-58
2023/07/27 08:57:49;;;;;;;1.50;1.40;;;;;;;18.45;52.10;97676.84;6228541;28;20236;-57
2023/07/27 09:00:51;;;;;;;2.40;1.23;;;;;;;18.46;52.46;97686.53;6225588;28;20243;-58
2023/07/27 09:03:53;;;;;;;1.63;1.23;;;;;;;18.37;49.16;97674.78;6227922;28;20239;-58
2023/07/27 09:06:56;;;;;;;2.37;1.50;;;;;;;18.33;47.28;97676.50;6208034;28;20243;-58
2023/07/27 09:09:58;;;;;;;2.83;1.40;;;;;;;18.25;49.23;97673.34;6227769;28;20231;-58
2023/07/27 09:13:00;;;;;;;1.97;1.47;;;;;;;18.27;50.36;97667.66;6228368;28;20783;-58
2023/07/27 09:16:06;;;;;;;1.57;1.23;;;;;;;18.26;49.72;97679.53;6232560;28;20224;-58
2023/07/27 09:19:10;;;;;;;1.70;1.57;;;;;;;18.31;49.25;97666.78;6236368;28;20239;-58
2023/07/27 09:22:13;;;;;;;1.90;1.30;;;;;;;18.42;49.79;97667.44;6212570;28;20228;-44
2023/07/27 09:25:22;;;;;;;1.43;1.27;;;;;;;18.61;48.50;97666.59;6231656;28;20239;-45
2023/07/27 09:28:28;;;;;;;1.63;1.30;;;;;;;18.52;48.58;97653.81;6208672;28;20239;-43
2023/07/27 09:31:35;;;;;;;1.93;1.37;;;;;;;18.68;47.31;97665.19;6229237;28;20718;-43
2023/07/27 09:34:39;;;;;;;2.10;1.57;;;;;;;18.63;45.50;97656.34;6238022;28;20228;-45
2023/07/27 09:37:46;;;;;;;1.43;1.30;;;;;;;18.59;47.02;97663.41;6225258;28;20236;-44
2023/07/27 09:40:48;;;;;;;1.30;1.00;;;;;;;18.68;47.49;97653.56;6230962;28;20243;-44
2023/07/27 09:43:52;;;;;;;3.10;1.40;;;;;;;18.83;48.12;97653.31;6232152;28;20228;-43
2023/07/27 09:46:54;;;;;;;2.13;1.67;;;;;;;19.00;49.13;97658.16;6231284;28;20228;-41
2023/07/27 09:50:00;;;;;;;2.53;1.37;;;;;;;19.23;44.97;97654.50;6229884;28;20272;-44
2023/07/27 09:53:03;;;;;;;2.03;1.57;;;;;;;19.34;42.33;97660.50;6231143;28;20239;-43
2023/07/27 09:56:07;;;;;;;1.30;1.20;;;;;;;19.19;45.42;97648.09;6231455;28;20236;-43
2023/07/27 09:59:10;;;;;;;1.40;1.30;;;;;;;19.28;45.06;97634.72;6231933;28;20267;-42
2023/07/27 10:02:13;;;;;;;2.87;1.40;;;;;;;19.37;46.84;97648.31;6231329;28;20235;-43
2023/07/27 10:05:20;;;;;;;1.67;1.40;;;;;;;19.49;46.06;97648.63;6232077;28;20246;-43
2023/07/27 10:08:23;;;;;;;1.60;1.50;;;;;;;19.61;43.49;97643.56;6230350;28;20375;-43
2023/07/27 10:11:55;;;;;;;1.90;1.37;;;;;;;19.65;47.38;97639.13;6227395;28;20235;-42
2023/07/27 10:15:21;;;;;;;1.67;1.47;;;;;;;19.73;43.05;97633.03;6227929;28;20856;-43
2023/07/27 10:18:25;;;;;;;2.07;1.40;;;;;;;19.68;41.01;97606.09;6228965;28;20224;-44
2023/07/27 10:21:28;;;;;;;1.60;1.40;;;;;;;19.70;42.25;97619.31;6231767;28;20228;-41
2023/07/27 10:24:52;;;;;;;1.90;1.67;;;;;;;19.51;43.57;97597.78;6230177;28;20235;-43
2023/07/27 10:27:56;;;;;;;1.67;1.40;;;;;;;19.64;42.59;97626.72;6229613;28;20235;-42
2023/07/27 10:31:26;;;;;;;2.20;1.60;;;;;;;19.75;46.00;97624.59;6230504;28;20614;-43
2023/07/27 10:34:30;;;;;;;1.73;1.50;;;;;;;19.89;44.38;97598.34;6229937;28;20228;-43
2023/07/27 10:38:00;;;;;;;1.37;1.20;;;;;;;20.02;44.24;97610.25;6228116;28;20247;-42
2023/07/27 10:41:15;;;;;;;2.63;1.33;;;;;;;20.21;42.45;97601.97;6227945;28;20239;-42
2023/07/27 10:44:18;;;;;;;1.70;1.60;;;;;;;20.37;40.76;97600.50;6209123;28;20255;-42
2023/07/27 10:47:27;;;;;;;2.87;1.43;;;;;;;20.27;41.17;97588.00;6230857;28;20953;-42
2023/07/27 10:50:30;;;;;;;1.90;1.40;;;;;;;20.30;42.46;97594.72;6228844;28;20232;-43
2023/07/27 10:53:35;;;;;;;1.60;1.30;;;;;;;20.49;40.84;97591.84;6204479;28;20330;-43
2023/07/27 10:56:38;;;;;;;1.33;1.23;;;;;;;20.35;37.19;97564.84;6228806;28;20346;-40
2023/07/27 10:59:44;;;;;;;1.97;1.40;;;;;;;20.60;38.21;97585.88;6230683;28;20255;-41
2023/07/27 11:02:47;;;;;;;1.33;1.23;;;;;;;20.67;41.01;97576.53;6229020;28;20600;-44
2023/07/27 11:06:17;;;;;;;1.57;1.20;;;;;;;20.65;36.62;97565.22;6229321;28;20232;-42
2023/07/27 11:09:21;;;;;;;1.40;1.30;;;;;;;20.64;37.62;97563.59;6226373;28;20585;-42
2023/07/27 11:12:23;;;;;;;1.90;1.50;;;;;;;20.61;39.47;97556.91;6230620;28;20232;-43
2023/07/27 11:15:27;;;;;;;1.60;1.50;;;;;;;20.67;39.96;97558.38;6228472;28;20255;-41
2023/07/27 11:18:29;;;;;;;1.80;1.30;;;;;;;20.77;39.79;97552.69;6230124;28;20362;-42
2023/07/27 11:21:32;;;;;;;2.40;1.63;;;;;;;20.47;37.24;97496.66;6211659;28;20220;-43
2023/07/27 11:24:35;;;;;;;2.00;1.40;;;;;;;20.82;39.12;97540.94;6229626;28;20725;-41
2023/07/27 11:27:38;;;;;;;1.50;1.40;;;;;;;20.94;40.37;97543.06;6228747;28;20338;-42
2023/07/27 11:30:40;;;;;;;1.50;1.30;;;;;;;20.98;42.52;97544.03;6229722;28;20231;-42
2023/07/27 11:33:43;;;;;;;2.13;1.30;;;;;;;20.91;37.64;97524.72;6229450;28;20259;-43
2023/07/27 11:36:50;;;;;;;3.07;1.43;;;;;;;21.08;37.00;97539.16;6229044;28;20608;-43
2023/07/27 11:39:53;;;;;;;1.40;1.20;;;;;;;21.07;37.03;97534.03;6227313;28;20313;-43
2023/07/27 11:42:55;;;;;;;2.10;1.60;;;;;;;21.04;35.66;97516.50;6228966;28;20317;-42
2023/07/27 11:45:58;;;;;;;1.53;1.40;;;;;;;21.12;35.69;97523.84;6210851;28;20255;-44
2023/07/27 11:49:02;;;;;;;1.47;0.87;;;;;;;21.10;36.99;97500.91;6229325;28;20268;-42
2023/07/27 11:52:08;;;;;;;3.00;1.10;;;;;;;21.22;38.05;97506.50;6224611;28;20697;-43
2023/07/27 11:55:14;;;;;;;1.30;1.20;;;;;;;21.36;35.07;97507.19;6229352;28;20228;-43
2023/07/27 11:58:17;;;;;;;1.67;1.50;;;;;;;21.35;35.69;97511.03;6228465;28;20243;-44
2023/07/27 12:01:19;;;;;;;1.80;1.43;;;;;;;21.26;36.88;97487.69;6228826;28;20236;-43
2023/07/27 12:04:22;;;;;;;1.53;1.33;;;;;;;21.33;35.68;97486.16;6211512;28;20665;-57
2023/07/27 12:07:26;;;;;;;2.70;1.20;;;;;;;21.60;33.01;97495.13;6228812;28;20236;-59
2023/07/27 12:10:29;;;;;;;2.30;1.33;;;;;;;21.51;33.99;97499.72;6227598;28;20227;-59
2023/07/27 12:13:37;;;;;;;1.30;1.20;;;;;;;21.57;35.73;97499.25;6228738;28;20239;-59
2023/07/27 12:16:44;;;;;;;1.77;1.30;;;;;;;21.36;35.29;97466.56;6222831;28;20235;-59
2023/07/27 12:19:50;;;;;;;1.57;1.47;;;;;;;21.47;33.53;97487.91;6229887;28;20378;-58
2023/07/27 12:22:57;;;;;;;1.50;1.33;;;;;;;21.30;35.26;97453.44;6228408;28;20767;-58
2023/07/27 12:26:20;;;;;;;1.07;0.97;;;;;;;21.56;37.13;97481.41;6223638;28;20224;-59
2023/07/27 12:29:25;;;;;;;1.13;1.03;;;;;;;21.60;33.60;97473.44;6225788;28;20242;-59
2023/07/27 12:32:30;;;;;;;1.47;1.30;;;;;;;21.55;34.34;97473.59;6227872;28;20709;-59
2023/07/27 12:35:33;;;;;;;2.13;1.20;;;;;;;21.57;36.33;97479.47;6226840;28;20224;-59
2023/07/27 12:38:35;;;;;;;1.37;1.20;;;;;;;21.64;36.30;97469.75;6226707;28;20223;-59
2023/07/27 12:41:42;;;;;;;1.37;1.27;;;;;;;21.64;34.04;97471.69;6227360;28;20243;-59
2023/07/27 12:45:06;;;;;;;1.47;1.30;;;;;;;21.70;34.80;97461.47;6227587;28;20236;-58
2023/07/27 12:48:08;;;;;;;1.47;1.23;;;;;;;21.81;34.97;97457.31;6231786;28;20210;-59
2023/07/27 12:51:10;;;;;;;1.77;1.33;;;;;;;22.07;34.94;97443.75;6232791;28;20227;-58
2023/07/27 12:54:13;;;;;;;1.20;1.10;;;;;;;22.33;33.03;97449.91;6228860;28;20238;-59
2023/07/27 12:57:15;;;;;;;1.50;1.40;;;;;;;22.13;32.64;97447.91;6207043;28;20230;-59
2023/07/27 13:00:19;;;;;;;2.03;1.37;;;;;;;22.26;32.15;97446.88;6232718;28;20584;-59
2023/07/27 13:03:21;;;;;;;1.43;1.33;;;;;;;22.26;34.08;97436.03;6232422;28;20702;-59
2023/07/27 13:06:23;;;;;;;2.00;1.30;;;;;;;22.23;33.17;97438.63;6232270;28;20720;-59
2023/07/27 13:09:26;;;;;;;2.80;1.10;;;;;;;22.28;34.54;97441.16;6232718;28;20288;-59
2023/07/27 13:12:28;;;;;;;3.57;1.83;;;;;;;22.34;35.87;97432.50;6232430;28;20223;-59
2023/07/27 13:15:33;;;;;;;1.30;1.20;;;;;;;22.14;32.72;97428.56;6230860;28;20224;-59
2023/07/27 13:18:36;;;;;;;1.50;1.40;;;;;;;21.90;34.01;97423.66;6230008;28;20281;-59
2023/07/27 13:21:38;;;;;;;1.33;1.23;;;;;;;21.78;34.62;97406.44;6231809;28;20235;-58
2023/07/27 13:24:40;;;;;;;2.67;1.40;;;;;;;21.95;35.31;97419.19;6232398;28;20350;-58
2023/07/27 13:27:43;;;;;;;2.75;1.45;;;;;;;21.90;34.54;97420.94;6230962;28;20760;-59
2023/07/27 13:30:45;;;;;;;1.90;1.17;;;;;;;21.90;34.57;97417.44;6231277;28;20996;-59
2023/07/27 13:33:47;;;;;;;3.90;1.43;;;;;;;22.11;36.99;97414.84;6228587;28;20232;-59
2023/07/27 13:36:50;;;;;;;1.40;1.30;;;;;;;22.07;35.40;97417.41;6231463;28;20235;-59
2023/07/27 13:39:52;;;;;;;2.97;1.25;;;;;;;22.03;37.58;97418.38;6230567;28;20242;-59
2023/07/27 13:42:54;;;;;;;1.30;1.20;;;;;;;21.92;39.66;97425.22;6230263;28;20236;-59
2023/07/27 13:45:56;;;;;;;1.20;1.03;;;;;;;21.82;38.79;97410.09;6232657;28;20243;-59
2023/07/27 13:48:59;;;;;;;1.23;1.13;;;;;;;21.87;40.41;97418.06;6230004;28;20231;-59
2023/07/27 13:52:01;;;;;;;1.63;1.20;;;;;;;21.73;43.14;97407.41;6231008;28;20236;-59
2023/07/27 13:55:06;;;;;;;2.07;0.90;;;;;;;21.49;44.74;97383.50;6220850;28;20693;-59
2023/07/27 13:58:09;;;;;;;2.00;1.47;;;;;;;21.62;39.19;97396.09;6226074;28;20305;-58
2023/07/27 14:01:11;;;;;;;1.40;1.30;;;;;;;21.76;37.85;97405.97;6227386;28;20319;-58
2023/07/27 14:04:14;;;;;;;1.97;1.23;;;;;;;21.78;40.78;97404.53;6229120;28;20240;-59
2023/07/27 14:07:17;;;;;;;1.37;1.10;;;;;;;21.70;42.71;97408.03;6230397;28;20612;-59
2023/07/27 14:10:19;;;;;;;1.97;1.20;;;;;;;21.61;43.76;97404.53;6226536;28;20239;-59
2023/07/27 14:13:22;;;;;;;2.27;1.20;;;;;;;21.41;44.14;97381.59;6230192;28;20242;-59
2023/07/27 14:16:25;;;;;;;1.37;1.10;;;;;;;21.42;44.74;97387.81;6225996;28;20250;-58
2023/07/27 14:19:27;;;;;;;1.50;1.13;;;;;;;21.42;45.24;97395.94;6224836;28;20548;-58
2023/07/27 14:22:34;;;;;;;1.20;1.10;;;;;;;21.46;45.63;97403.09;6226484;28;20243;-59
2023/07/27 14:25:38;;;;;;;1.87;1.77;;;;;;;21.52;45.19;97401.03;6227920;28;20721;-58
2023/07/27 14:28:40;;;;;;;4.37;2.23;;;;;;;21.46;45.25;97386.84;6222243;28;20305;-58